sensor_id;sensor_type;location;lat;lon;timestamp;pressure;altitude;pressure_sealevel;temperature;humidity
54329;BME280;40710;51.120;13.136;2023-07-28T00:01:13;98336.28;;;20.89;67.74
54329;BME280;40710;51.120;13.136;2023-07-28T00:03:37;98327.03;;;21.48;66.88
54329;BME280;40710;51.120;13.136;2023-07-28T00:06:02;98308.31;;;22.77;62.79
54329;BME280;40710;51.120;13.136;2023-07-28T00:08:26;98337.00;;;20.75;69.29
54329;BME280;40710;51.120;13.136;2023-07-28T00:10:52;98324.53;;;21.69;66.29
54329;BME280;40710;51.120;13.136;2023-07-28T00:13:16;98325.25;;;21.32;67.25
54329;BME280;40710;51.120;13.136;2023-07-28T00:15:41;98308.97;;;21.73;66.35
54329;BME280;40710;51.120;13.136;2023-07-28T00:18:06;98334.66;;;21.20;68.31
54329;BME280;40710;51.120;13.136;2023-07-28T00:20:31;98331.09;;;20.88;68.63
54329;BME280;40710;51.120;13.136;2023-07-28T00:22:56;98325.88;;;21.11;68.29
54329;BME280;40710;51.120;13.136;2023-07-28T00:25:21;98334.78;;;21.26;68.01
54329;BME280;40710;51.120;13.136;2023-07-28T00:27:46;98295.94;;;22.31;64.47
54329;BME280;40710;51.120;13.136;2023-07-28T00:30:12;98309.56;;;21.60;66.47
54329;BME280;40710;51.120;13.136;2023-07-28T00:32:37;98319.03;;;21.00;68.14
54329;BME280;40710;51.120;13.136;2023-07-28T00:35:02;98305.47;;;22.10;65.10
54329;BME280;40710;51.120;13.136;2023-07-28T00:37:26;98307.66;;;21.46;67.10
54329;BME280;40710;51.120;13.136;2023-07-28T00:39:51;98326.50;;;21.13;68.60
54329;BME280;40710;51.120;13.136;2023-07-28T00:42:16;98329.38;;;21.03;69.54
54329;BME280;40710;51.120;13.136;2023-07-28T00:44:40;98316.34;;;21.40;69.10
54329;BME280;40710;51.120;13.136;2023-07-28T00:47:05;98316.06;;;21.26;68.96
54329;BME280;40710;51.120;13.136;2023-07-28T00:49:30;98309.38;;;21.62;68.98
54329;BME280;40710;51.120;13.136;2023-07-28T00:51:56;98316.63;;;20.82;70.38
54329;BME280;40710;51.120;13.136;2023-07-28T00:54:21;98330.72;;;20.43;72.11
54329;BME280;40710;51.120;13.136;2023-07-28T00:56:46;98321.81;;;20.75;70.57
54329;BME280;40710;51.120;13.136;2023-07-28T00:59:12;98311.09;;;20.92;70.93
54329;BME280;40710;51.120;13.136;2023-07-28T01:01:37;98309.66;;;20.65;70.79
54329;BME280;40710;51.120;13.136;2023-07-28T01:04:02;98307.94;;;20.88;70.62
54329;BME280;40710;51.120;13.136;2023-07-28T01:06:41;98325.72;;;20.32;72.45
54329;BME280;40710;51.120;13.136;2023-07-28T01:09:13;98311.19;;;20.67;71.58
54329;BME280;40710;51.120;13.136;2023-07-28T01:11:53;98322.03;;;20.66;71.32
54329;BME280;40710;51.120;13.136;2023-07-28T01:14:18;98304.81;;;21.39;69.54
54329;BME280;40710;51.120;13.136;2023-07-28T01:16:44;98304.38;;;21.27;69.13
54329;BME280;40710;51.120;13.136;2023-07-28T01:19:11;98301.53;;;20.98;69.31
54329;BME280;40710;51.120;13.136;2023-07-28T01:21:39;98314.00;;;20.57;71.94
54329;BME280;40710;51.120;13.136;2023-07-28T01:24:25;98334.09;;;20.20;73.30
54329;BME280;40710;51.120;13.136;2023-07-28T01:26:52;98311.66;;;20.54;72.28
54329;BME280;40710;51.120;13.136;2023-07-28T01:29:17;98304.41;;;20.88;72.41
54329;BME280;40710;51.120;13.136;2023-07-28T01:31:46;98308.03;;;20.64;72.59
54329;BME280;40710;51.120;13.136;2023-07-28T01:34:11;98308.28;;;20.77;72.54
54329;BME280;40710;51.120;13.136;2023-07-28T01:36:35;98298.66;;;21.07;70.07
54329;BME280;40710;51.120;13.136;2023-07-28T01:39:00;98302.31;;;20.67;71.01
54329;BME280;40710;51.120;13.136;2023-07-28T01:41:25;98314.38;;;20.46;72.83
54329;BME280;40710;51.120;13.136;2023-07-28T01:43:49;98292.91;;;21.73;69.32
54329;BME280;40710;51.120;13.136;2023-07-28T01:46:14;98310.41;;;21.21;70.00
54329;BME280;40710;51.120;13.136;2023-07-28T01:48:39;98315.34;;;20.53;73.03
54329;BME280;40710;51.120;13.136;2023-07-28T01:51:04;98312.50;;;20.71;72.25
54329;BME280;40710;51.120;13.136;2023-07-28T01:53:29;98314.00;;;20.74;71.64
54329;BME280;40710;51.120;13.136;2023-07-28T01:55:54;98322.03;;;20.66;71.62
54329;BME280;40710;51.120;13.136;2023-07-28T01:58:19;98329.53;;;20.54;71.96
54329;BME280;40710;51.120;13.136;2023-07-28T02:00:44;98327.28;;;20.18;73.04
54329;BME280;40710;51.120;13.136;2023-07-28T02:03:10;98329.09;;;20.34;73.11
54329;BME280;40710;51.120;13.136;2023-07-28T02:05:35;98307.00;;;20.65;72.24
54329;BME280;40710;51.120;13.136;2023-07-28T02:08:00;98293.91;;;21.72;68.31
54329;BME280;40710;51.120;13.136;2023-07-28T02:10:26;98307.09;;;21.19;69.48
54329;BME280;40710;51.120;13.136;2023-07-28T02:12:51;98326.75;;;20.39;72.36
54329;BME280;40710;51.120;13.136;2023-07-28T02:15:15;98302.69;;;20.64;71.59
54329;BME280;40710;51.120;13.136;2023-07-28T02:17:40;98313.31;;;20.72;71.39
54329;BME280;40710;51.120;13.136;2023-07-28T02:20:05;98331.53;;;20.68;71.83
54329;BME280;40710;51.120;13.136;2023-07-28T02:22:30;98294.97;;;21.40;69.24
54329;BME280;40710;51.120;13.136;2023-07-28T02:24:54;98283.28;;;21.87;66.92
54329;BME280;40710;51.120;13.136;2023-07-28T02:27:19;98281.13;;;21.82;67.25
54329;BME280;40710;51.120;13.136;2023-07-28T02:29:43;98312.00;;;20.59;71.39
54329;BME280;40710;51.120;13.136;2023-07-28T02:32:09;98295.56;;;20.87;70.70
54329;BME280;40710;51.120;13.136;2023-07-28T02:34:34;98290.19;;;21.58;68.15
54329;BME280;40710;51.120;13.136;2023-07-28T02:36:58;98297.34;;;20.55;71.71
54329;BME280;40710;51.120;13.136;2023-07-28T02:39:23;98301.19;;;20.45;71.10
54329;BME280;40710;51.120;13.136;2023-07-28T02:41:49;98277.06;;;21.40;67.65
54329;BME280;40710;51.120;13.136;2023-07-28T02:44:13;98309.59;;;20.25;72.20
54329;BME280;40710;51.120;13.136;2023-07-28T02:46:38;98298.88;;;20.33;72.48
54329;BME280;40710;51.120;13.136;2023-07-28T02:49:03;98279.06;;;21.15;69.05
54329;BME280;40710;51.120;13.136;2023-07-28T02:51:28;98278.06;;;21.47;68.71
54329;BME280;40710;51.120;13.136;2023-07-28T02:53:52;98295.66;;;20.54;71.67
54329;BME280;40710;51.120;13.136;2023-07-28T02:56:17;98305.19;;;20.65;71.90
54329;BME280;40710;51.120;13.136;2023-07-28T02:58:42;98293.56;;;20.89;70.29
54329;BME280;40710;51.120;13.136;2023-07-28T03:01:07;98307.38;;;20.37;71.81
54329;BME280;40710;51.120;13.136;2023-07-28T03:03:32;98284.66;;;20.57;70.82
54329;BME280;40710;51.120;13.136;2023-07-28T03:05:56;98289.66;;;20.61;72.33
54329;BME280;40710;51.120;13.136;2023-07-28T03:08:21;98297.50;;;20.46;71.69
54329;BME280;40710;51.120;13.136;2023-07-28T03:10:46;98278.75;;;21.49;68.24
54329;BME280;40710;51.120;13.136;2023-07-28T03:13:10;98291.00;;;21.36;68.35
54329;BME280;40710;51.120;13.136;2023-07-28T03:15:35;98283.41;;;22.08;66.14
54329;BME280;40710;51.120;13.136;2023-07-28T03:17:59;98303.59;;;20.79;70.08
54329;BME280;40710;51.120;13.136;2023-07-28T03:20:24;98295.91;;;21.24;69.08
54329;BME280;40710;51.120;13.136;2023-07-28T03:22:49;98290.66;;;21.85;67.73
54329;BME280;40710;51.120;13.136;2023-07-28T03:25:14;98304.09;;;21.22;69.11
54329;BME280;40710;51.120;13.136;2023-07-28T03:27:38;98297.78;;;21.69;67.97
54329;BME280;40710;51.120;13.136;2023-07-28T03:30:04;98312.16;;;20.74;71.01
54329;BME280;40710;51.120;13.136;2023-07-28T03:32:31;98312.88;;;21.00;69.40
54329;BME280;40710;51.120;13.136;2023-07-28T03:34:55;98315.19;;;21.11;69.13
54329;BME280;40710;51.120;13.136;2023-07-28T03:37:20;98318.75;;;20.95;69.43
54329;BME280;40710;51.120;13.136;2023-07-28T03:39:44;98314.16;;;21.12;68.56
54329;BME280;40710;51.120;13.136;2023-07-28T03:42:09;98309.31;;;21.47;68.49
54329;BME280;40710;51.120;13.136;2023-07-28T03:44:34;98313.63;;;20.85;69.66
54329;BME280;40710;51.120;13.136;2023-07-28T03:46:58;98322.66;;;20.76;70.41
54329;BME280;40710;51.120;13.136;2023-07-28T03:49:23;98299.34;;;21.64;68.18
54329;BME280;40710;51.120;13.136;2023-07-28T03:51:47;98297.44;;;21.73;67.21
54329;BME280;40710;51.120;13.136;2023-07-28T03:54:12;98306.94;;;21.44;68.11
54329;BME280;40710;51.120;13.136;2023-07-28T03:56:37;98323.06;;;21.36;68.80
54329;BME280;40710;51.120;13.136;2023-07-28T03:59:01;98328.53;;;21.11;69.03
54329;BME280;40710;51.120;13.136;2023-07-28T04:01:26;98334.22;;;21.08;69.71
54329;BME280;40710;51.120;13.136;2023-07-28T04:03:51;98327.78;;;21.25;68.79
54329;BME280;40710;51.120;13.136;2023-07-28T04:06:15;98321.81;;;21.15;69.04
54329;BME280;40710;51.120;13.136;2023-07-28T04:08:40;98316.44;;;21.23;68.79
54329;BME280;40710;51.120;13.136;2023-07-28T04:11:05;98311.47;;;21.51;68.73
54329;BME280;40710;51.120;13.136;2023-07-28T04:13:30;98310.38;;;21.84;67.59
54329;BME280;40710;51.120;13.136;2023-07-28T04:15:55;98322.03;;;21.05;69.21
54329;BME280;40710;51.120;13.136;2023-07-28T04:18:20;98328.63;;;21.57;68.64
54329;BME280;40710;51.120;13.136;2023-07-28T04:20:44;98337.78;;;20.92;70.42
54329;BME280;40710;51.120;13.136;2023-07-28T04:23:09;98335.91;;;21.63;67.39
54329;BME280;40710;51.120;13.136;2023-07-28T04:25:33;98318.28;;;21.77;67.17
54329;BME280;40710;51.120;13.136;2023-07-28T04:27:58;98337.81;;;20.84;69.83
54329;BME280;40710;51.120;13.136;2023-07-28T04:30:23;98343.84;;;20.77;70.78
54329;BME280;40710;51.120;13.136;2023-07-28T04:32:47;98322.16;;;21.75;67.97
54329;BME280;40710;51.120;13.136;2023-07-28T04:35:12;98320.59;;;22.41;65.84
54329;BME280;40710;51.120;13.136;2023-07-28T04:37:37;98329.09;;;21.84;66.06
54329;BME280;40710;51.120;13.136;2023-07-28T04:40:02;98331.47;;;21.56;67.88
54329;BME280;40710;51.120;13.136;2023-07-28T04:42:27;98324.56;;;22.45;64.86
54329;BME280;40710;51.120;13.136;2023-07-28T04:44:52;98314.31;;;22.34;65.10
54329;BME280;40710;51.120;13.136;2023-07-28T04:47:16;98326.25;;;21.62;67.15
54329;BME280;40710;51.120;13.136;2023-07-28T04:49:41;98317.41;;;21.30;68.02
54329;BME280;40710;51.120;13.136;2023-07-28T04:52:07;98319.31;;;21.53;67.86
54329;BME280;40710;51.120;13.136;2023-07-28T04:54:32;98297.63;;;22.62;64.52
54329;BME280;40710;51.120;13.136;2023-07-28T04:56:57;98303.88;;;22.39;65.11
54329;BME280;40710;51.120;13.136;2023-07-28T04:59:21;98319.34;;;21.37;67.85
54329;BME280;40710;51.120;13.136;2023-07-28T05:01:46;98314.78;;;22.53;64.72
54329;BME280;40710;51.120;13.136;2023-07-28T05:04:10;98320.28;;;21.98;66.64
54329;BME280;40710;51.120;13.136;2023-07-28T05:06:36;98333.34;;;22.16;66.23
54329;BME280;40710;51.120;13.136;2023-07-28T05:09:00;98334.41;;;21.69;66.05
54329;BME280;40710;51.120;13.136;2023-07-28T05:11:25;98326.75;;;22.27;65.28
54329;BME280;40710;51.120;13.136;2023-07-28T05:13:49;98341.66;;;21.83;66.01
54329;BME280;40710;51.120;13.136;2023-07-28T05:16:14;98337.31;;;23.18;62.67
54329;BME280;40710;51.120;13.136;2023-07-28T05:18:39;98344.03;;;22.39;64.04
54329;BME280;40710;51.120;13.136;2023-07-28T05:21:06;98334.97;;;23.00;62.19
54329;BME280;40710;51.120;13.136;2023-07-28T05:23:31;98352.00;;;22.48;64.64
54329;BME280;40710;51.120;13.136;2023-07-28T05:25:55;98353.47;;;22.35;65.13
54329;BME280;40710;51.120;13.136;2023-07-28T05:28:20;98341.56;;;23.12;63.10
54329;BME280;40710;51.120;13.136;2023-07-28T05:30:45;98357.72;;;22.59;63.90
54329;BME280;40710;51.120;13.136;2023-07-28T05:33:10;98339.34;;;22.41;65.41
54329;BME280;40710;51.120;13.136;2023-07-28T05:35:34;98339.63;;;22.61;64.48
54329;BME280;40710;51.120;13.136;2023-07-28T05:37:59;98358.13;;;21.95;66.47
54329;BME280;40710;51.120;13.136;2023-07-28T05:40:23;98355.34;;;22.26;64.83
54329;BME280;40710;51.120;13.136;2023-07-28T05:42:48;98353.75;;;22.70;63.87
54329;BME280;40710;51.120;13.136;2023-07-28T05:45:13;98350.28;;;22.32;65.07
54329;BME280;40710;51.120;13.136;2023-07-28T05:47:37;98359.19;;;22.47;64.54
54329;BME280;40710;51.120;13.136;2023-07-28T05:50:02;98358.16;;;22.10;64.99
54329;BME280;40710;51.120;13.136;2023-07-28T05:52:27;98351.91;;;22.56;63.47
54329;BME280;40710;51.120;13.136;2023-07-28T05:54:52;98364.06;;;22.43;64.88
54329;BME280;40710;51.120;13.136;2023-07-28T05:57:16;98356.25;;;22.57;63.81
54329;BME280;40710;51.120;13.136;2023-07-28T05:59:42;98358.66;;;21.67;66.56
54329;BME280;40710;51.120;13.136;2023-07-28T06:02:06;98355.59;;;22.55;63.98
54329;BME280;40710;51.120;13.136;2023-07-28T06:04:31;98354.75;;;22.54;64.62
54329;BME280;40710;51.120;13.136;2023-07-28T06:06:56;98335.50;;;23.40;62.03
54329;BME280;40710;51.120;13.136;2023-07-28T06:09:20;98335.31;;;24.00;60.48
54329;BME280;40710;51.120;13.136;2023-07-28T06:11:45;98364.34;;;22.49;63.83
54329;BME280;40710;51.120;13.136;2023-07-28T06:14:09;98346.56;;;22.85;62.30
54329;BME280;40710;51.120;13.136;2023-07-28T06:16:34;98359.66;;;22.51;64.14
54329;BME280;40710;51.120;13.136;2023-07-28T06:18:59;98383.34;;;22.16;64.97
54329;BME280;40710;51.120;13.136;2023-07-28T06:21:23;98391.59;;;22.37;64.45
54329;BME280;40710;51.120;13.136;2023-07-28T06:23:48;98354.41;;;23.32;62.68
54329;BME280;40710;51.120;13.136;2023-07-28T06:26:13;98363.03;;;23.49;62.02
54329;BME280;40710;51.120;13.136;2023-07-28T06:28:37;98360.06;;;23.07;62.54
54329;BME280;40710;51.120;13.136;2023-07-28T06:31:03;98367.09;;;23.08;62.29
54329;BME280;40710;51.120;13.136;2023-07-28T06:33:28;98375.13;;;23.08;62.86
54329;BME280;40710;51.120;13.136;2023-07-28T06:35:53;98372.66;;;23.58;61.94
54329;BME280;40710;51.120;13.136;2023-07-28T06:38:18;98374.94;;;23.61;60.98
54329;BME280;40710;51.120;13.136;2023-07-28T06:40:43;98379.97;;;23.49;61.74
54329;BME280;40710;51.120;13.136;2023-07-28T06:43:08;98397.06;;;22.59;63.05
54329;BME280;40710;51.120;13.136;2023-07-28T06:45:33;98390.97;;;22.95;62.52
54329;BME280;40710;51.120;13.136;2023-07-28T06:47:58;98380.91;;;23.78;59.98
54329;BME280;40710;51.120;13.136;2023-07-28T06:50:23;98385.59;;;22.65;62.61
54329;BME280;40710;51.120;13.136;2023-07-28T06:52:47;98383.25;;;23.15;61.67
54329;BME280;40710;51.120;13.136;2023-07-28T06:55:12;98373.66;;;23.78;59.85
54329;BME280;40710;51.120;13.136;2023-07-28T06:57:37;98385.16;;;23.36;60.73
54329;BME280;40710;51.120;13.136;2023-07-28T07:00:01;98402.34;;;23.56;60.79
54329;BME280;40710;51.120;13.136;2023-07-28T07:02:27;98405.06;;;23.12;61.46
54329;BME280;40710;51.120;13.136;2023-07-28T07:04:52;98405.28;;;23.62;60.65
54329;BME280;40710;51.120;13.136;2023-07-28T07:07:17;98390.44;;;24.24;58.98
54329;BME280;40710;51.120;13.136;2023-07-28T07:09:42;98383.78;;;24.41;58.60
54329;BME280;40710;51.120;13.136;2023-07-28T07:12:08;98397.16;;;24.13;59.65
54329;BME280;40710;51.120;13.136;2023-07-28T07:14:33;98402.38;;;23.27;61.19
54329;BME280;40710;51.120;13.136;2023-07-28T07:16:58;98411.22;;;23.42;60.65
54329;BME280;40710;51.120;13.136;2023-07-28T07:19:22;98396.72;;;23.73;59.78
54329;BME280;40710;51.120;13.136;2023-07-28T07:21:47;98412.50;;;23.01;62.31
54329;BME280;40710;51.120;13.136;2023-07-28T07:24:13;98416.88;;;23.17;61.58
54329;BME280;40710;51.120;13.136;2023-07-28T07:26:38;98403.09;;;22.91;62.11
54329;BME280;40710;51.120;13.136;2023-07-28T07:29:02;98388.91;;;23.93;59.50
54329;BME280;40710;51.120;13.136;2023-07-28T07:31:27;98392.13;;;24.53;58.64
54329;BME280;40710;51.120;13.136;2023-07-28T07:33:52;98397.63;;;23.80;60.18
54329;BME280;40710;51.120;13.136;2023-07-28T07:36:18;98391.72;;;23.48;60.42
54329;BME280;40710;51.120;13.136;2023-07-28T07:38:44;98408.19;;;23.00;61.77
54329;BME280;40710;51.120;13.136;2023-07-28T07:41:12;98400.31;;;23.44;61.19
54329;BME280;40710;51.120;13.136;2023-07-28T07:43:37;98395.09;;;24.15;59.07
54329;BME280;40710;51.120;13.136;2023-07-28T07:46:02;98388.41;;;27.32;50.27
54329;BME280;40710;51.120;13.136;2023-07-28T07:48:27;98403.66;;;26.13;53.17
54329;BME280;40710;51.120;13.136;2023-07-28T07:50:51;98410.28;;;26.17;53.25
54329;BME280;40710;51.120;13.136;2023-07-28T07:53:16;98442.31;;;23.21;60.05
54329;BME280;40710;51.120;13.136;2023-07-28T07:55:40;98454.69;;;23.22;60.40
54329;BME280;40710;51.120;13.136;2023-07-28T07:58:06;98448.38;;;23.60;60.46
54329;BME280;40710;51.120;13.136;2023-07-28T08:00:31;98453.75;;;23.60;59.81
54329;BME280;40710;51.120;13.136;2023-07-28T08:02:55;98450.63;;;23.93;59.18
54329;BME280;40710;51.120;13.136;2023-07-28T08:05:20;98453.19;;;24.01;59.62
54329;BME280;40710;51.120;13.136;2023-07-28T08:07:45;98449.38;;;23.74;59.27
54329;BME280;40710;51.120;13.136;2023-07-28T08:10:11;98460.56;;;23.77;59.66
54329;BME280;40710;51.120;13.136;2023-07-28T08:12:36;98450.16;;;23.89;59.13
54329;BME280;40710;51.120;13.136;2023-07-28T08:15:00;98437.28;;;24.43;58.39
54329;BME280;40710;51.120;13.136;2023-07-28T08:17:25;98447.59;;;24.61;58.09
54329;BME280;40710;51.120;13.136;2023-07-28T08:19:50;98443.44;;;24.58;57.65
54329;BME280;40710;51.120;13.136;2023-07-28T08:22:15;98440.31;;;24.83;56.30
54329;BME280;40710;51.120;13.136;2023-07-28T08:24:39;98447.25;;;24.27;56.99
54329;BME280;40710;51.120;13.136;2023-07-28T08:27:04;98432.88;;;25.55;54.57
54329;BME280;40710;51.120;13.136;2023-07-28T08:29:28;98458.94;;;23.62;59.87
54329;BME280;40710;51.120;13.136;2023-07-28T08:31:53;98441.94;;;25.12;55.32
54329;BME280;40710;51.120;13.136;2023-07-28T08:34:18;98459.28;;;24.53;57.38
54329;BME280;40710;51.120;13.136;2023-07-28T08:36:42;98443.75;;;24.98;56.41
54329;BME280;40710;51.120;13.136;2023-07-28T08:39:08;98454.09;;;24.08;57.94
54329;BME280;40710;51.120;13.136;2023-07-28T08:41:35;98455.81;;;25.16;56.33
54329;BME280;40710;51.120;13.136;2023-07-28T08:43:59;98451.31;;;24.88;56.58
54329;BME280;40710;51.120;13.136;2023-07-28T08:46:24;98455.44;;;24.41;57.79
54329;BME280;40710;51.120;13.136;2023-07-28T08:48:49;98446.00;;;25.29;56.31
54329;BME280;40710;51.120;13.136;2023-07-28T08:51:14;98439.47;;;25.52;55.70
54329;BME280;40710;51.120;13.136;2023-07-28T08:53:39;98452.91;;;25.10;55.63
54329;BME280;40710;51.120;13.136;2023-07-28T08:56:05;98449.41;;;25.52;55.97
54329;BME280;40710;51.120;13.136;2023-07-28T08:58:30;98451.59;;;25.76;54.75
54329;BME280;40710;51.120;13.136;2023-07-28T09:00:55;98463.09;;;24.87;56.70
54329;BME280;40710;51.120;13.136;2023-07-28T09:03:20;98455.44;;;25.54;55.20
54329;BME280;40710;51.120;13.136;2023-07-28T09:05:46;98446.59;;;26.88;51.82
54329;BME280;40710;51.120;13.136;2023-07-28T09:08:14;98444.28;;;27.05;50.52
54329;BME280;40710;51.120;13.136;2023-07-28T09:10:44;98443.22;;;27.26;50.88
54329;BME280;40710;51.120;13.136;2023-07-28T09:13:11;98454.47;;;26.56;52.46
54329;BME280;40710;51.120;13.136;2023-07-28T09:15:36;98476.50;;;25.92;54.20
54329;BME280;40710;51.120;13.136;2023-07-28T09:18:01;98484.34;;;24.82;57.07
54329;BME280;40710;51.120;13.136;2023-07-28T09:20:34;98473.94;;;26.32;53.18
54329;BME280;40710;51.120;13.136;2023-07-28T09:22:59;98485.88;;;25.61;54.45
54329;BME280;40710;51.120;13.136;2023-07-28T09:25:24;98471.91;;;26.81;53.13
54329;BME280;40710;51.120;13.136;2023-07-28T09:27:50;98497.38;;;24.85;57.88
54329;BME280;40710;51.120;13.136;2023-07-28T09:30:16;98493.22;;;24.82;56.73
54329;BME280;40710;51.120;13.136;2023-07-28T09:32:47;98496.59;;;24.91;56.56
54329;BME280;40710;51.120;13.136;2023-07-28T09:35:13;98500.97;;;24.27;58.40
54329;BME280;40710;51.120;13.136;2023-07-28T09:37:41;98493.63;;;25.07;56.81
54329;BME280;40710;51.120;13.136;2023-07-28T09:40:09;98501.34;;;24.89;56.37
54329;BME280;40710;51.120;13.136;2023-07-28T09:42:36;98494.56;;;24.93;57.10
54329;BME280;40710;51.120;13.136;2023-07-28T09:45:01;98490.06;;;26.18;53.85
54329;BME280;40710;51.120;13.136;2023-07-28T09:47:48;98508.25;;;24.77;56.87
54329;BME280;40710;51.120;13.136;2023-07-28T09:50:33;98493.22;;;25.87;53.19
54329;BME280;40710;51.120;13.136;2023-07-28T09:53:02;98491.94;;;26.31;53.52
54329;BME280;40710;51.120;13.136;2023-07-28T09:55:28;98494.88;;;26.56;52.80
54329;BME280;40710;51.120;13.136;2023-07-28T09:57:55;98501.97;;;26.77;51.87
54329;BME280;40710;51.120;13.136;2023-07-28T10:00:22;98481.00;;;27.85;49.05
54329;BME280;40710;51.120;13.136;2023-07-28T10:02:47;98485.09;;;27.42;50.07
54329;BME280;40710;51.120;13.136;2023-07-28T10:05:11;98477.25;;;28.88;47.58
54329;BME280;40710;51.120;13.136;2023-07-28T10:07:39;98472.22;;;29.35;46.40
54329;BME280;40710;51.120;13.136;2023-07-28T10:10:06;98477.16;;;28.44;47.32
54329;BME280;40710;51.120;13.136;2023-07-28T10:12:51;98480.06;;;28.43;47.42
54329;BME280;40710;51.120;13.136;2023-07-28T10:15:20;98464.75;;;29.68;44.55
54329;BME280;40710;51.120;13.136;2023-07-28T10:17:47;98470.16;;;29.12;45.06
54329;BME280;40710;51.120;13.136;2023-07-28T10:20:33;98466.63;;;29.67;44.89
54329;BME280;40710;51.120;13.136;2023-07-28T10:23:05;98466.97;;;30.08;43.67
54329;BME280;40710;51.120;13.136;2023-07-28T10:25:35;98477.06;;;30.61;42.58
54329;BME280;40710;51.120;13.136;2023-07-28T10:28:00;98479.63;;;30.56;43.07
54329;BME280;40710;51.120;13.136;2023-07-28T10:30:26;98482.41;;;30.38;42.63
54329;BME280;40710;51.120;13.136;2023-07-28T10:32:51;98491.97;;;29.73;44.30
54329;BME280;40710;51.120;13.136;2023-07-28T10:37:47;98494.94;;;28.27;46.31
54329;BME280;40710;51.120;13.136;2023-07-28T10:40:31;98472.72;;;31.83;40.48
54329;BME280;40710;51.120;13.136;2023-07-28T10:42:57;98488.88;;;30.79;42.18
54329;BME280;40710;51.120;13.136;2023-07-28T10:45:24;98472.47;;;30.73;42.09
54329;BME280;40710;51.120;13.136;2023-07-28T10:47:49;98497.38;;;28.92;43.96
54329;BME280;40710;51.120;13.136;2023-07-28T10:50:16;98495.31;;;29.13;44.85
54329;BME280;40710;51.120;13.136;2023-07-28T10:52:45;98496.50;;;28.73;44.61
54329;BME280;40710;51.120;13.136;2023-07-28T10:57:38;98503.28;;;27.67;47.48
54329;BME280;40710;51.120;13.136;2023-07-28T11:00:03;98513.56;;;27.25;48.55
54329;BME280;40710;51.120;13.136;2023-07-28T11:02:30;98488.44;;;29.72;43.95
54329;BME280;40710;51.120;13.136;2023-07-28T11:04:56;98491.66;;;29.26;43.97
54329;BME280;40710;51.120;13.136;2023-07-28T11:07:20;98479.25;;;30.41;42.20
54329;BME280;40710;51.120;13.136;2023-07-28T11:09:45;98473.78;;;29.98;42.26
54329;BME280;40710;51.120;13.136;2023-07-28T11:12:09;98483.91;;;30.33;41.85
54329;BME280;40710;51.120;13.136;2023-07-28T11:14:34;98485.34;;;30.06;42.56
54329;BME280;40710;51.120;13.136;2023-07-28T11:16:59;98484.63;;;29.62;42.90
54329;BME280;40710;51.120;13.136;2023-07-28T11:19:23;98470.59;;;30.98;40.48
54329;BME280;40710;51.120;13.136;2023-07-28T11:21:51;98454.84;;;31.59;39.16
54329;BME280;40710;51.120;13.136;2023-07-28T11:24:19;98488.06;;;30.06;42.02
54329;BME280;40710;51.120;13.136;2023-07-28T11:26:44;98495.38;;;29.68;42.27
54329;BME280;40710;51.120;13.136;2023-07-28T11:29:10;98476.69;;;30.81;40.94
54329;BME280;40710;51.120;13.136;2023-07-28T11:31:34;98471.22;;;31.76;39.83
54329;BME280;40710;51.120;13.136;2023-07-28T11:33:59;98468.13;;;31.08;39.70
54329;BME280;40710;51.120;13.136;2023-07-28T11:36:29;98490.47;;;30.26;41.91
54329;BME280;40710;51.120;13.136;2023-07-28T11:38:57;98488.28;;;30.34;41.83
54329;BME280;40710;51.120;13.136;2023-07-28T11:41:23;98488.72;;;30.62;40.32
54329;BME280;40710;51.120;13.136;2023-07-28T11:43:49;98497.94;;;30.00;42.11
54329;BME280;40710;51.120;13.136;2023-07-28T11:46:36;98486.34;;;30.65;40.33
54329;BME280;40710;51.120;13.136;2023-07-28T11:49:19;98487.44;;;30.88;40.39
54329;BME280;40710;51.120;13.136;2023-07-28T11:51:48;98486.25;;;30.84;40.04
54329;BME280;40710;51.120;13.136;2023-07-28T11:54:15;98483.31;;;31.33;39.81
54329;BME280;40710;51.120;13.136;2023-07-28T11:56:44;98499.25;;;29.79;40.84
54329;BME280;40710;51.120;13.136;2023-07-28T11:59:10;98503.63;;;28.93;42.83
54329;BME280;40710;51.120;13.136;2023-07-28T12:01:34;98480.88;;;31.19;39.59
54329;BME280;40710;51.120;13.136;2023-07-28T12:03:59;98495.66;;;29.23;41.29
54329;BME280;40710;51.120;13.136;2023-07-28T12:09:27;98496.66;;;29.66;41.54
54329;BME280;40710;51.120;13.136;2023-07-28T12:11:52;98503.84;;;28.91;42.98
54329;BME280;40710;51.120;13.136;2023-07-28T12:14:30;98506.72;;;29.21;42.69
54329;BME280;40710;51.120;13.136;2023-07-28T12:16:55;98508.56;;;28.96;42.85
54329;BME280;40710;51.120;13.136;2023-07-28T12:19:19;98504.06;;;30.80;41.11
54329;BME280;40710;51.120;13.136;2023-07-28T12:21:44;98496.97;;;30.25;41.42
54329;BME280;40710;51.120;13.136;2023-07-28T12:24:08;98498.09;;;30.17;41.20
54329;BME280;40710;51.120;13.136;2023-07-28T12:26:33;98497.63;;;31.04;40.33
54329;BME280;40710;51.120;13.136;2023-07-28T12:28:57;98495.78;;;30.32;41.60
54329;BME280;40710;51.120;13.136;2023-07-28T12:31:22;98488.91;;;30.37;40.25
54329;BME280;40710;51.120;13.136;2023-07-28T12:33:46;98496.34;;;30.53;40.00
54329;BME280;40710;51.120;13.136;2023-07-28T12:36:11;98509.78;;;30.17;40.96
54329;BME280;40710;51.120;13.136;2023-07-28T12:38:36;98491.84;;;31.01;40.27
54329;BME280;40710;51.120;13.136;2023-07-28T12:41:01;98497.50;;;30.99;39.94
54329;BME280;40710;51.120;13.136;2023-07-28T12:43:25;98501.88;;;31.00;39.41
54329;BME280;40710;51.120;13.136;2023-07-28T12:45:51;98510.03;;;29.97;40.94
54329;BME280;40710;51.120;13.136;2023-07-28T12:48:17;98506.13;;;30.42;40.54
54329;BME280;40710;51.120;13.136;2023-07-28T12:50:43;98496.56;;;30.40;41.00